createdAt,value
2022-07-27T00:00:59.079Z,24.99
2022-07-27T00:03:26.234Z,24.99
2022-07-27T00:05:53.071Z,24.93
2022-07-27T00:08:20.771Z,24.73
2022-07-27T00:10:48.023Z,24.82
2022-07-27T00:13:15.063Z,24.75
2022-07-27T00:15:42.210Z,24.70
2022-07-27T00:18:09.748Z,24.65
2022-07-27T00:20:37.484Z,24.49
2022-07-27T00:23:04.266Z,24.55
2022-07-27T00:25:31.359Z,24.50
2022-07-27T00:27:58.232Z,24.44
2022-07-27T00:30:26.005Z,24.31
2022-07-27T00:32:53.445Z,24.34
2022-07-27T00:35:20.300Z,24.27
2022-07-27T00:37:47.023Z,24.18
2022-07-27T00:40:14.674Z,24.09
2022-07-27T00:42:41.656Z,24.05
2022-07-27T00:45:09.066Z,23.94
2022-07-27T00:47:36.121Z,23.98
2022-07-27T00:50:03.369Z,23.97
2022-07-27T00:52:30.987Z,23.85
2022-07-27T00:54:59.308Z,23.63
2022-07-27T00:57:28.000Z,23.76
2022-07-27T00:59:54.917Z,23.71
2022-07-27T01:02:22.927Z,23.49
2022-07-27T01:04:53.646Z,23.42
2022-07-27T01:07:25.979Z,23.44
2022-07-27T01:09:58.877Z,23.55
2022-07-27T01:12:32.304Z,23.41
2022-07-27T01:15:01.110Z,23.43
2022-07-27T01:17:31.491Z,23.29
2022-07-27T01:19:59.169Z,23.23
2022-07-27T01:22:27.000Z,23.12
2022-07-27T01:24:54.316Z,23.13
2022-07-27T01:27:21.264Z,23.03
2022-07-27T01:29:48.839Z,23.03
2022-07-27T01:32:16.130Z,22.99
2022-07-27T01:34:43.021Z,22.90
2022-07-27T01:37:09.912Z,22.84
2022-07-27T01:39:36.990Z,22.85
2022-07-27T01:42:04.131Z,22.85
2022-07-27T01:44:31.810Z,22.77
2022-07-27T01:46:58.562Z,22.74
2022-07-27T01:49:25.567Z,22.73
2022-07-27T01:51:52.522Z,22.73
2022-07-27T01:54:19.361Z,22.60
2022-07-27T01:56:46.118Z,22.56
2022-07-27T01:59:16.110Z,22.47
2022-07-27T02:01:43.552Z,22.37
2022-07-27T02:04:10.540Z,22.47
2022-07-27T02:06:37.585Z,22.37
2022-07-27T02:09:04.432Z,22.26
2022-07-27T02:11:49.766Z,22.30
2022-07-27T02:14:16.931Z,22.32
2022-07-27T02:16:43.801Z,22.11
2022-07-27T02:19:11.251Z,22.01
2022-07-27T02:21:39.062Z,22.12
2022-07-27T02:24:06.465Z,22.10
2022-07-27T02:26:33.333Z,21.97
2022-07-27T02:29:00.507Z,21.78
2022-07-27T02:31:32.690Z,21.68
2022-07-27T02:34:00.752Z,21.72
2022-07-27T02:36:30.927Z,21.80
2022-07-27T02:38:58.342Z,21.89
2022-07-27T02:41:25.199Z,21.86
2022-07-27T02:43:52.281Z,21.85
2022-07-27T02:46:19.730Z,21.79
2022-07-27T02:48:47.010Z,21.76
2022-07-27T02:51:15.357Z,21.72
2022-07-27T02:53:42.240Z,21.65
2022-07-27T02:56:09.422Z,21.79
2022-07-27T02:58:36.935Z,21.78
2022-07-27T03:01:05.255Z,21.71
2022-07-27T03:03:35.897Z,21.69
2022-07-27T03:06:05.929Z,21.50
2022-07-27T03:08:32.896Z,21.52
2022-07-27T03:10:59.671Z,21.49
2022-07-27T03:13:26.837Z,21.58
2022-07-27T03:15:53.628Z,21.53
2022-07-27T03:18:21.171Z,21.62
2022-07-27T03:20:48.230Z,21.60
2022-07-27T03:23:15.338Z,21.67
2022-07-27T03:25:42.104Z,21.57
2022-07-27T03:28:10.008Z,21.61
2022-07-27T03:30:37.028Z,21.78
2022-07-27T03:33:04.326Z,21.88
2022-07-27T03:35:31.306Z,21.94
2022-07-27T03:37:58.781Z,21.82
2022-07-27T03:40:25.746Z,21.90
2022-07-27T03:42:52.716Z,22.06
2022-07-27T03:45:19.504Z,22.25
2022-07-27T03:47:46.293Z,22.37
2022-07-27T03:50:13.198Z,22.48
2022-07-27T03:52:39.965Z,22.59
2022-07-27T03:55:12.596Z,22.71
2022-07-27T03:57:40.071Z,22.82
2022-07-27T04:00:08.728Z,22.90
2022-07-27T04:02:35.460Z,22.84
2022-07-27T04:05:02.629Z,22.56
2022-07-27T04:07:29.383Z,22.64
2022-07-27T04:09:56.389Z,22.76
2022-07-27T04:12:24.146Z,22.49
2022-07-27T04:14:51.804Z,22.48
2022-07-27T04:17:56.119Z,22.54
2022-07-27T04:20:06.896Z,22.42
2022-07-27T04:22:33.697Z,22.40
2022-07-27T04:25:00.718Z,22.34
2022-07-27T04:27:27.792Z,22.29
2022-07-27T04:29:54.625Z,22.28
2022-07-27T04:32:21.438Z,22.07
2022-07-27T04:34:48.695Z,22.42
2022-07-27T04:37:15.657Z,22.46
2022-07-27T04:39:42.529Z,22.59
2022-07-27T04:42:09.675Z,22.88
2022-07-27T04:44:36.391Z,23.16
2022-07-27T04:47:03.209Z,23.25
2022-07-27T04:49:30.301Z,23.39
2022-07-27T04:51:57.084Z,23.49
2022-07-27T04:54:23.991Z,23.34
2022-07-27T04:56:51.734Z,23.28
2022-07-27T04:59:18.619Z,23.33
2022-07-27T05:01:45.463Z,23.40
2022-07-27T05:04:12.552Z,23.34
2022-07-27T05:06:39.492Z,23.25
2022-07-27T05:09:06.450Z,23.40
2022-07-27T05:11:33.954Z,23.51
2022-07-27T05:14:00.826Z,23.34
2022-07-27T05:16:29.090Z,23.22
2022-07-27T05:18:57.333Z,23.11
2022-07-27T05:21:25.116Z,23.13
2022-07-27T05:23:52.058Z,23.19
2022-07-27T05:26:19.088Z,23.19
2022-07-27T05:28:45.879Z,23.34
2022-07-27T05:31:12.639Z,23.34
2022-07-27T05:33:39.592Z,23.52
2022-07-27T05:36:07.830Z,23.47
2022-07-27T05:38:39.426Z,23.65
2022-07-27T05:41:07.972Z,23.69
2022-07-27T05:43:40.393Z,23.75
2022-07-27T05:46:07.534Z,23.11
2022-07-27T05:48:34.379Z,23.60
2022-07-27T05:51:01.060Z,23.74
2022-07-27T05:53:28.090Z,23.81
2022-07-27T05:55:58.676Z,23.83
2022-07-27T05:58:27.926Z,23.85
2022-07-27T06:00:56.512Z,23.78
2022-07-27T06:03:23.725Z,23.84
2022-07-27T06:05:50.577Z,23.82
2022-07-27T06:08:17.495Z,23.80
2022-07-27T06:10:44.460Z,23.88
2022-07-27T06:13:14.302Z,23.71
2022-07-27T06:15:41.361Z,23.82
2022-07-27T06:18:14.903Z,23.80
2022-07-27T06:20:43.213Z,23.94
2022-07-27T06:23:10.983Z,23.97
2022-07-27T06:25:37.756Z,24.15
2022-07-27T06:28:06.049Z,23.93
2022-07-27T06:30:33.461Z,23.91
2022-07-27T06:33:01.167Z,24.09
2022-07-27T06:35:28.140Z,24.31
2022-07-27T06:37:54.881Z,24.36
2022-07-27T06:40:22.027Z,24.33
2022-07-27T06:42:49.044Z,24.30
2022-07-27T06:45:16.589Z,24.16
2022-07-27T06:47:49.901Z,24.30
2022-07-27T06:50:18.501Z,24.43
2022-07-27T06:52:45.325Z,24.61
2022-07-27T06:55:13.885Z,24.62
2022-07-27T06:57:42.153Z,24.71
2022-07-27T07:00:09.831Z,24.75
2022-07-27T07:02:36.580Z,24.57
2022-07-27T07:05:04.187Z,24.94
2022-07-27T07:07:31.708Z,24.95
2022-07-27T07:09:59.166Z,25.00
2022-07-27T07:12:28.391Z,24.98
2022-07-27T07:14:55.197Z,25.18
2022-07-27T07:17:21.921Z,25.21
2022-07-27T07:19:48.759Z,25.41
2022-07-27T07:22:15.566Z,25.34
2022-07-27T07:24:42.501Z,25.43
2022-07-27T07:27:09.385Z,25.60
2022-07-27T07:29:36.141Z,25.73
2022-07-27T07:32:02.875Z,25.83
2022-07-27T07:34:30.933Z,25.70
2022-07-27T07:36:58.206Z,25.50
2022-07-27T07:39:30.857Z,25.47
2022-07-27T07:41:58.759Z,25.49
2022-07-27T07:44:27.109Z,25.88
2022-07-27T07:46:56.055Z,25.56
2022-07-27T07:49:37.807Z,25.35
2022-07-27T07:52:08.057Z,25.59
2022-07-27T07:54:36.727Z,25.97
2022-07-27T07:59:47.377Z,25.83
2022-07-27T08:02:14.919Z,26.03
2022-07-27T08:04:43.857Z,26.22
2022-07-27T08:07:10.907Z,25.97
2022-07-27T08:09:39.192Z,26.50
2022-07-27T08:12:06.529Z,26.52
2022-07-27T08:14:34.989Z,26.61
2022-07-27T08:17:02.056Z,26.46
2022-07-27T08:19:28.876Z,26.71
2022-07-27T08:21:55.832Z,26.73
2022-07-27T08:24:22.547Z,26.85
2022-07-27T08:26:49.287Z,27.05
2022-07-27T08:29:17.282Z,27.05
2022-07-27T08:31:51.204Z,27.04
2022-07-27T08:34:18.956Z,27.24
2022-07-27T08:36:45.682Z,26.74
2022-07-27T08:39:41.251Z,26.82
2022-07-27T08:42:05.830Z,27.17
2022-07-27T08:44:33.674Z,27.25
2022-07-27T08:47:04.270Z,27.50
2022-07-27T08:49:43.197Z,27.48
2022-07-27T08:52:11.751Z,27.51
2022-07-27T08:54:40.287Z,27.58
2022-07-27T08:57:11.248Z,27.60
2022-07-27T08:59:41.975Z,27.33
2022-07-27T09:02:13.339Z,27.37
2022-07-27T09:04:41.243Z,27.17
2022-07-27T09:07:08.118Z,27.56
2022-07-27T09:09:46.572Z,27.80
2022-07-27T09:12:13.572Z,27.54
2022-07-27T09:14:41.610Z,27.78
2022-07-27T09:20:19.346Z,27.98
2022-07-27T09:22:56.250Z,28.13
2022-07-27T09:26:00.246Z,28.20
2022-07-27T09:28:13.543Z,28.15
2022-07-27T09:30:44.083Z,28.15
2022-07-27T09:33:11.040Z,28.03
2022-07-27T09:35:38.012Z,28.09
2022-07-27T09:38:22.051Z,28.17
2022-07-27T09:41:02.402Z,28.15
2022-07-27T09:46:32.836Z,28.02
2022-07-27T09:49:00.776Z,28.13
2022-07-27T09:54:17.106Z,28.70
2022-07-27T09:56:44.884Z,28.29
2022-07-27T09:59:18.459Z,28.57
2022-07-27T10:01:49.927Z,28.24
2022-07-27T10:04:21.929Z,27.97
2022-07-27T10:07:02.380Z,28.75
2022-07-27T10:09:37.310Z,28.63
2022-07-27T10:12:19.856Z,28.66
2022-07-27T10:14:50.895Z,28.55
2022-07-27T10:17:24.533Z,28.89
2022-07-27T10:19:51.703Z,28.59
2022-07-27T10:22:51.927Z,29.32
2022-07-27T10:25:19.662Z,29.18
2022-07-27T10:27:48.705Z,29.09
2022-07-27T10:30:24.000Z,29.41
2022-07-27T10:32:54.708Z,29.37
2022-07-27T10:35:40.114Z,29.04
2022-07-27T10:38:13.040Z,29.39
2022-07-27T10:40:40.130Z,29.09
2022-07-27T10:43:20.051Z,29.29
2022-07-27T10:46:00.982Z,28.92
2022-07-27T10:48:47.857Z,28.89
2022-07-27T10:51:17.131Z,29.43
2022-07-27T10:56:46.938Z,29.58
2022-07-27T10:59:14.161Z,29.66
2022-07-27T11:01:57.877Z,29.89
2022-07-27T11:04:24.989Z,29.91
2022-07-27T11:10:07.638Z,30.23
2022-07-27T11:12:36.761Z,30.18
2022-07-27T11:15:04.664Z,30.18
2022-07-27T11:20:23.706Z,30.22
2022-07-27T11:25:38.128Z,30.13
2022-07-27T11:28:09.236Z,29.86
2022-07-27T11:30:36.618Z,30.14
2022-07-27T11:33:05.287Z,30.42
2022-07-27T11:35:32.512Z,30.32
2022-07-27T11:38:05.793Z,30.33
2022-07-27T11:40:56.970Z,30.56
2022-07-27T11:43:45.856Z,30.55
2022-07-27T11:46:24.767Z,30.52
2022-07-27T11:49:07.894Z,30.54
2022-07-27T11:51:41.578Z,30.60
2022-07-27T11:54:10.796Z,30.77
2022-07-27T11:56:43.270Z,30.87
2022-07-27T11:59:16.435Z,30.77
2022-07-27T12:01:50.495Z,30.71
2022-07-27T12:04:30.573Z,30.83
2022-07-27T12:07:03.301Z,30.96
2022-07-27T12:09:38.116Z,31.14
2022-07-27T12:12:16.902Z,31.22
2022-07-27T12:14:51.292Z,31.17
2022-07-27T12:17:20.968Z,31.23
2022-07-27T12:19:53.091Z,30.89
2022-07-27T12:22:30.563Z,30.93
2022-07-27T12:24:59.209Z,30.89
2022-07-27T12:27:27.415Z,31.11
2022-07-27T12:30:00.234Z,31.22
2022-07-27T12:32:30.092Z,31.18
2022-07-27T12:34:57.554Z,31.10
2022-07-27T12:37:30.018Z,31.00
2022-07-27T12:39:57.634Z,30.86
2022-07-27T12:42:36.353Z,30.76
2022-07-27T12:45:16.663Z,30.70
2022-07-27T12:47:43.988Z,30.42
2022-07-27T12:50:14.907Z,31.17
2022-07-27T12:52:52.004Z,31.51
2022-07-27T12:55:24.309Z,31.49
2022-07-27T12:57:56.157Z,31.37
2022-07-27T13:00:29.386Z,30.98
2022-07-27T13:03:00.703Z,31.14
2022-07-27T13:05:27.885Z,31.06
2022-07-27T13:07:55.748Z,31.19
2022-07-27T13:10:22.604Z,31.32
2022-07-27T13:12:49.993Z,31.08
2022-07-27T13:15:18.254Z,31.07
2022-07-27T13:17:46.604Z,31.31
2022-07-27T13:20:14.993Z,30.85
2022-07-27T13:22:42.498Z,31.01
2022-07-27T13:25:16.410Z,31.18
2022-07-27T13:27:46.021Z,31.24
2022-07-27T13:30:14.718Z,31.37
2022-07-27T13:32:42.966Z,31.36
2022-07-27T13:35:12.444Z,31.55
2022-07-27T13:37:40.873Z,31.47
2022-07-27T13:40:09.913Z,31.27
2022-07-27T13:42:37.596Z,31.53
2022-07-27T13:45:11.293Z,31.61
2022-07-27T13:47:41.027Z,31.37
2022-07-27T13:50:13.670Z,31.71
2022-07-27T13:52:46.452Z,31.71
2022-07-27T13:55:17.926Z,31.19
2022-07-27T13:57:46.150Z,31.40
2022-07-27T14:00:14.110Z,31.42
2022-07-27T14:02:41.996Z,31.40
2022-07-27T14:05:10.012Z,31.71
2022-07-27T14:07:40.450Z,31.28
2022-07-27T14:10:26.512Z,31.24
2022-07-27T14:12:58.815Z,31.69
2022-07-27T14:15:26.724Z,31.46
2022-07-27T14:17:53.758Z,31.36
2022-07-27T14:20:20.758Z,31.70
2022-07-27T14:22:47.714Z,31.85
2022-07-27T14:25:14.908Z,31.88
2022-07-27T14:27:42.574Z,31.58
2022-07-27T14:30:10.173Z,31.72
2022-07-27T14:32:37.026Z,31.83
2022-07-27T14:35:05.062Z,32.03
2022-07-27T14:37:34.299Z,32.07
2022-07-27T14:40:01.832Z,32.13
2022-07-27T14:42:29.685Z,31.94
2022-07-27T14:44:57.187Z,31.44
2022-07-27T14:47:24.235Z,31.07
2022-07-27T14:49:51.691Z,31.78
2022-07-27T14:52:19.262Z,30.72
2022-07-27T14:54:47.816Z,31.65
2022-07-27T14:57:16.631Z,31.32
2022-07-27T14:59:44.962Z,31.74
2022-07-27T15:02:14.492Z,31.35
2022-07-27T15:04:52.710Z,32.01
2022-07-27T15:07:22.327Z,31.26
2022-07-27T15:09:49.726Z,31.50
2022-07-27T15:12:17.452Z,30.90
2022-07-27T15:15:44.469Z,31.91
2022-07-27T15:21:58.975Z,30.86
2022-07-27T15:24:26.291Z,31.04
2022-07-27T15:26:55.010Z,31.25
2022-07-27T15:32:39.425Z,31.12
2022-07-27T15:35:06.865Z,31.80
2022-07-27T15:37:34.020Z,31.34
2022-07-27T15:40:20.950Z,30.58
2022-07-27T15:42:48.201Z,30.80
2022-07-27T15:45:38.978Z,31.56
2022-07-27T15:48:08.406Z,31.43
2022-07-27T15:50:37.938Z,31.50
2022-07-27T15:53:05.687Z,31.49
2022-07-27T15:55:33.977Z,31.68
2022-07-27T15:58:00.790Z,31.61
2022-07-27T16:00:27.645Z,31.54
2022-07-27T16:02:56.838Z,31.45
2022-07-27T16:05:24.016Z,31.59
2022-07-27T16:07:51.865Z,31.56
2022-07-27T16:10:18.740Z,31.53
2022-07-27T16:12:45.702Z,31.47
2022-07-27T16:15:17.928Z,31.33
2022-07-27T16:17:44.928Z,31.35
2022-07-27T16:20:13.461Z,31.46
2022-07-27T16:22:49.511Z,31.26
2022-07-27T16:25:16.597Z,31.27
2022-07-27T16:27:44.554Z,31.59
2022-07-27T16:30:20.442Z,31.25
2022-07-27T16:32:48.189Z,31.42
2022-07-27T16:35:15.039Z,31.35
2022-07-27T16:37:41.785Z,31.27
2022-07-27T16:40:09.420Z,31.35
2022-07-27T16:42:38.033Z,31.22
2022-07-27T16:45:05.828Z,31.38
2022-07-27T16:47:32.876Z,31.34
2022-07-27T16:49:59.678Z,31.22
2022-07-27T16:52:26.464Z,31.34
2022-07-27T16:54:53.554Z,31.26
2022-07-27T16:57:20.289Z,31.23
2022-07-27T16:59:47.166Z,30.87
2022-07-27T17:02:42.865Z,31.05
2022-07-27T17:05:20.853Z,30.27
2022-07-27T17:07:51.155Z,30.10
2022-07-27T17:10:26.804Z,30.38
2022-07-27T17:12:55.708Z,30.93
2022-07-27T17:15:25.202Z,30.99
2022-07-27T17:17:52.019Z,31.03
2022-07-27T17:20:32.961Z,30.71
2022-07-27T17:23:05.792Z,30.78
2022-07-27T17:25:32.730Z,30.92
2022-07-27T17:27:59.697Z,30.89
2022-07-27T17:30:26.529Z,30.65
2022-07-27T17:32:54.128Z,30.62
2022-07-27T17:35:21.011Z,30.55
2022-07-27T17:38:05.456Z,30.37
2022-07-27T17:40:32.889Z,30.22
2022-07-27T17:42:59.592Z,30.20
2022-07-27T17:45:26.547Z,30.13
2022-07-27T17:58:10.149Z,29.73
2022-07-27T18:00:37.286Z,29.62
2022-07-27T18:03:05.368Z,29.31
2022-07-27T18:05:32.649Z,29.39
2022-07-27T18:07:59.810Z,29.37
2022-07-27T18:10:26.570Z,29.15
2022-07-27T18:12:53.307Z,29.02
2022-07-27T18:15:39.439Z,29.13
2022-07-27T18:18:06.206Z,28.90
2022-07-27T18:20:33.278Z,28.91
2022-07-27T18:23:00.116Z,28.90
2022-07-27T18:25:27.645Z,28.74
2022-07-27T18:27:55.046Z,28.70
2022-07-27T18:30:22.094Z,28.32
2022-07-27T18:32:51.042Z,27.61
2022-07-27T18:35:18.976Z,28.21
2022-07-27T18:37:50.899Z,27.91
2022-07-27T18:40:18.460Z,27.95
2022-07-27T18:42:46.988Z,28.24
2022-07-27T18:45:13.808Z,27.52
2022-07-27T18:47:40.585Z,27.43
2022-07-27T18:50:17.101Z,27.70
2022-07-27T18:52:44.223Z,27.97
2022-07-27T18:58:54.956Z,27.80
2022-07-27T19:01:22.222Z,27.54
2022-07-27T19:03:50.478Z,27.27
2022-07-27T19:06:18.129Z,26.95
2022-07-27T19:08:45.611Z,26.91
2022-07-27T19:11:12.428Z,26.95
2022-07-27T19:13:40.228Z,26.30
2022-07-27T19:16:07.457Z,26.71
2022-07-27T19:18:34.311Z,26.46
2022-07-27T19:21:01.379Z,27.29
2022-07-27T19:23:28.428Z,26.80
2022-07-27T19:26:00.390Z,26.97
2022-07-27T19:28:27.804Z,27.07
2022-07-27T19:30:54.684Z,26.98
2022-07-27T19:33:21.558Z,26.91
2022-07-27T19:35:50.648Z,26.86
2022-07-27T19:38:17.484Z,26.83
2022-07-27T19:40:46.038Z,26.77
2022-07-27T19:43:17.501Z,26.75
2022-07-27T19:45:44.416Z,26.66
2022-07-27T19:48:11.861Z,26.63
2022-07-27T19:50:39.297Z,26.67
2022-07-27T19:53:06.151Z,26.38
2022-07-27T19:55:33.212Z,26.61
2022-07-27T19:58:00.991Z,26.40
2022-07-27T20:00:28.125Z,26.42
2022-07-27T20:02:54.984Z,26.48
2022-07-27T20:05:22.243Z,26.48
2022-07-27T20:07:48.981Z,26.43
2022-07-27T20:10:16.254Z,26.27
2022-07-27T20:12:43.222Z,26.30
2022-07-27T20:15:10.493Z,26.34
2022-07-27T20:17:37.739Z,26.29
2022-07-27T20:20:09.355Z,26.23
2022-07-27T20:22:36.845Z,26.24
2022-07-27T20:25:03.973Z,26.08
2022-07-27T20:27:30.968Z,26.26
2022-07-27T20:29:58.191Z,26.05
2022-07-27T20:32:25.132Z,26.07
2022-07-27T20:34:52.390Z,26.14
2022-07-27T20:37:19.203Z,25.97
2022-07-27T20:39:45.992Z,26.06
2022-07-27T20:42:13.366Z,25.90
2022-07-27T20:44:40.115Z,25.95
2022-07-27T20:47:08.173Z,25.81
2022-07-27T20:49:35.318Z,25.86
2022-07-27T20:52:02.206Z,25.78
2022-07-27T20:54:29.814Z,25.78
2022-07-27T20:56:58.097Z,25.74
2022-07-27T20:59:24.977Z,25.70
2022-07-27T21:01:52.772Z,25.49
2022-07-27T21:04:24.957Z,25.57
2022-07-27T21:06:52.158Z,25.54
2022-07-27T21:09:18.968Z,25.40
2022-07-27T21:11:46.321Z,25.34
2022-07-27T21:14:13.125Z,25.35
2022-07-27T21:16:40.381Z,25.30
2022-07-27T21:19:07.717Z,25.23
2022-07-27T21:21:34.657Z,25.25
2022-07-27T21:24:18.545Z,25.13
2022-07-27T21:26:48.850Z,25.17
2022-07-27T21:29:16.335Z,25.02
2022-07-27T21:31:48.187Z,25.10
2022-07-27T21:34:19.863Z,25.10
2022-07-27T21:36:48.046Z,25.07
2022-07-27T21:39:15.208Z,25.05
2022-07-27T21:41:42.361Z,24.98
2022-07-27T21:44:09.491Z,25.04
2022-07-27T21:46:36.500Z,25.02
2022-07-27T21:49:03.991Z,24.89
2022-07-27T21:51:30.986Z,24.85
2022-07-27T21:53:57.815Z,24.75
2022-07-27T21:56:24.863Z,24.62
2022-07-27T21:58:51.836Z,24.55
2022-07-27T22:01:19.056Z,24.47
2022-07-27T22:03:46.394Z,24.40
2022-07-27T22:06:13.860Z,24.32
2022-07-27T22:08:40.751Z,24.20
2022-07-27T22:11:07.870Z,24.19
2022-07-27T22:13:36.094Z,23.94
2022-07-27T22:16:03.270Z,23.28
2022-07-27T22:18:31.573Z,23.85
2022-07-27T22:20:58.713Z,23.34
2022-07-27T22:23:26.052Z,23.25
2022-07-27T22:25:53.283Z,23.55
2022-07-27T22:28:20.540Z,23.21
2022-07-27T22:31:20.444Z,23.36
2022-07-27T22:33:39.975Z,23.32
2022-07-27T22:36:11.988Z,23.07
2022-07-27T22:38:39.358Z,22.84
2022-07-27T22:41:08.702Z,23.29
2022-07-27T22:43:35.854Z,22.77
2022-07-27T22:46:06.888Z,22.95
2022-07-27T22:48:33.959Z,23.08
2022-07-27T22:51:00.865Z,22.48
2022-07-27T22:53:28.376Z,22.61
2022-07-27T22:55:56.431Z,22.52
2022-07-27T22:58:23.306Z,22.47
2022-07-27T23:00:53.456Z,23.07
2022-07-27T23:03:23.278Z,22.67
2022-07-27T23:05:50.154Z,22.50
2022-07-27T23:08:17.107Z,22.95
2022-07-27T23:10:48.331Z,22.56
2022-07-27T23:13:17.350Z,22.60
2022-07-27T23:15:45.858Z,22.74
2022-07-27T23:18:16.665Z,22.31
2022-07-27T23:20:44.069Z,21.91
2022-07-27T23:23:16.769Z,22.56
2022-07-27T23:25:48.011Z,22.51
2022-07-27T23:28:16.492Z,22.49
2022-07-27T23:30:43.855Z,22.46
2022-07-27T23:33:11.209Z,22.48
2022-07-27T23:35:38.226Z,22.40
2022-07-27T23:38:05.073Z,22.20
2022-07-27T23:40:31.777Z,22.36
2022-07-27T23:42:59.637Z,22.25
2022-07-27T23:45:27.111Z,22.16
2022-07-27T23:47:54.520Z,22.17
2022-07-27T23:50:22.524Z,22.34
2022-07-27T23:52:52.020Z,22.29
2022-07-27T23:55:19.284Z,21.93
2022-07-27T23:57:47.353Z,22.17
